createdAt,value
2019-05-29T00:01:33.322Z,2.40
2019-05-29T00:06:37.790Z,2.43
2019-05-29T00:11:42.270Z,2.50
2019-05-29T00:16:46.835Z,2.40
2019-05-29T00:21:51.289Z,2.40
2019-05-29T00:26:55.842Z,2.00
2019-05-29T00:32:00.398Z,2.50
2019-05-29T00:37:06.272Z,2.57
2019-05-29T00:42:11.085Z,2.57
2019-05-29T00:47:15.729Z,2.20
2019-05-29T00:52:20.297Z,2.67
2019-05-29T00:57:24.828Z,2.60
2019-05-29T01:02:29.260Z,2.60
2019-05-29T01:07:33.742Z,2.60
2019-05-29T01:12:38.305Z,2.87
2019-05-29T01:17:42.721Z,2.83
2019-05-29T01:22:47.382Z,2.83
2019-05-29T01:27:51.834Z,3.30
2019-05-29T01:32:56.306Z,2.87
2019-05-29T01:38:00.896Z,2.70
2019-05-29T01:43:05.323Z,2.53
2019-05-29T01:48:09.727Z,2.50
2019-05-29T01:53:15.474Z,2.75
2019-05-29T01:58:20.520Z,2.70
2019-05-29T02:03:25.454Z,2.60
2019-05-29T02:08:30.362Z,2.50
2019-05-29T02:13:34.838Z,2.37
2019-05-29T02:18:39.594Z,2.07
2019-05-29T02:23:44.375Z,1.97
2019-05-29T02:28:48.938Z,2.20
2019-05-29T02:33:53.299Z,2.20
2019-05-29T02:38:57.846Z,1.80
2019-05-29T02:44:02.281Z,1.90
2019-05-29T02:49:07.096Z,2.00
2019-05-29T02:54:11.564Z,1.80
2019-05-29T02:59:16.063Z,1.93
2019-05-29T03:04:21.679Z,1.90
2019-05-29T03:09:26.594Z,2.10
2019-05-29T03:14:32.326Z,2.20
2019-05-29T03:19:38.335Z,2.40
2019-05-29T03:24:42.781Z,2.60
2019-05-29T03:29:47.259Z,2.80
2019-05-29T03:34:51.816Z,2.90
2019-05-29T03:39:56.643Z,2.75
2019-05-29T03:45:01.206Z,2.80
2019-05-29T03:50:06.346Z,2.87
2019-05-29T03:55:11.049Z,2.93
2019-05-29T04:00:17.503Z,3.50
2019-05-29T04:05:22.102Z,2.90
2019-05-29T04:10:32.863Z,3.50
2019-05-29T04:15:39.355Z,3.37
2019-05-29T04:20:46.587Z,3.40
2019-05-29T04:25:54.254Z,3.30
2019-05-29T04:30:58.702Z,3.80
2019-05-29T04:36:03.555Z,3.60
2019-05-29T04:41:08.002Z,3.63
2019-05-29T04:46:12.654Z,4.27
2019-05-29T04:51:17.102Z,3.80
2019-05-29T04:56:21.572Z,3.80
2019-05-29T05:01:26.314Z,4.10
2019-05-29T05:06:31.175Z,3.90
2019-05-29T05:11:35.678Z,4.20
2019-05-29T05:16:40.194Z,4.20
2019-05-29T05:21:44.735Z,4.03
2019-05-29T05:26:49.190Z,4.17
2019-05-29T05:31:53.666Z,4.10
2019-05-29T05:36:58.544Z,3.90
2019-05-29T05:42:03.398Z,4.07
2019-05-29T05:47:07.776Z,4.00
2019-05-29T05:52:12.270Z,4.20
2019-05-29T05:57:16.694Z,4.45
2019-05-29T06:02:21.694Z,4.55
2019-05-29T06:07:26.456Z,4.55
2019-05-29T06:12:32.212Z,4.10
2019-05-29T06:17:36.863Z,4.10
2019-05-29T06:22:41.322Z,4.13
2019-05-29T06:27:45.790Z,3.90
2019-05-29T06:32:50.510Z,4.40
2019-05-29T06:37:54.994Z,4.20
2019-05-29T06:42:59.895Z,4.43
2019-05-29T06:48:07.898Z,4.13
2019-05-29T06:53:12.631Z,4.10
2019-05-29T06:58:17.467Z,4.00
2019-05-29T07:03:22.118Z,4.17
2019-05-29T07:08:38.137Z,4.20
2019-05-29T07:13:35.193Z,4.07
2019-05-29T07:18:38.919Z,4.37
2019-05-29T07:23:45.167Z,3.83
2019-05-29T07:29:07.537Z,4.83
2019-05-29T07:33:55.722Z,4.27
2019-05-29T07:39:03.581Z,4.33
2019-05-29T07:44:06.250Z,4.40
2019-05-29T07:49:10.836Z,4.05
2019-05-29T07:54:15.304Z,3.83
2019-05-29T07:59:19.775Z,4.00
2019-05-29T08:04:24.221Z,4.30
2019-05-29T08:09:28.802Z,4.30
2019-05-29T08:14:33.313Z,4.90
2019-05-29T08:19:52.994Z,5.27
2019-05-29T08:24:46.301Z,5.08
2019-05-29T08:29:51.197Z,5.28
2019-05-29T08:34:55.788Z,5.13
2019-05-29T08:40:00.273Z,4.90
2019-05-29T08:45:06.067Z,4.77
2019-05-29T08:50:19.277Z,5.35
2019-05-29T08:55:17.081Z,4.60
2019-05-29T09:00:22.046Z,4.60
2019-05-29T09:05:26.654Z,4.93
2019-05-29T09:10:31.429Z,5.15
2019-05-29T09:15:35.898Z,4.80
2019-05-29T09:21:00.902Z,5.10
2019-05-29T09:25:46.599Z,4.60
2019-05-29T09:30:51.906Z,4.30
2019-05-29T09:35:56.532Z,5.30
2019-05-29T09:41:01.026Z,4.90
2019-05-29T09:46:05.499Z,4.90
2019-05-29T09:51:20.587Z,5.05
2019-05-29T09:56:16.651Z,4.50
2019-05-29T10:01:23.999Z,4.63
2019-05-29T10:06:27.264Z,4.40
2019-05-29T10:11:31.844Z,4.30
2019-05-29T10:16:36.349Z,4.03
2019-05-29T10:21:41.536Z,4.37
2019-05-29T10:26:46.163Z,3.67
2019-05-29T10:31:51.802Z,4.20
2019-05-29T10:36:57.155Z,4.07
2019-05-29T10:42:01.646Z,4.50
2019-05-29T10:47:06.136Z,2.90
2019-05-29T10:52:16.621Z,2.90
2019-05-29T10:57:17.007Z,3.30
2019-05-29T11:02:21.560Z,3.03
2019-05-29T11:07:26.102Z,3.03
2019-05-29T11:12:31.201Z,3.30
2019-05-29T11:17:36.121Z,3.00
2019-05-29T11:22:40.718Z,3.00
2019-05-29T11:27:45.172Z,2.95
2019-05-29T11:32:52.542Z,3.00
2019-05-29T11:37:56.947Z,3.23
2019-05-29T11:43:03.122Z,3.10
2019-05-29T11:48:07.978Z,3.20
2019-05-29T11:53:12.674Z,3.10
2019-05-29T11:58:30.696Z,2.10
2019-05-29T12:03:23.363Z,1.47
2019-05-29T12:08:28.547Z,1.50
2019-05-29T12:13:33.652Z,1.70
2019-05-29T12:18:38.201Z,1.70
2019-05-29T12:23:42.617Z,1.70
2019-05-29T12:28:47.225Z,2.20
2019-05-29T12:33:52.897Z,2.00
2019-05-29T12:38:57.933Z,1.87
2019-05-29T12:44:03.638Z,1.87
2019-05-29T12:49:08.107Z,1.85
2019-05-29T12:54:12.859Z,1.80
2019-05-29T12:59:17.411Z,2.00
2019-05-29T13:04:22.409Z,2.13
2019-05-29T13:09:26.860Z,1.80
2019-05-29T13:14:31.851Z,1.83
2019-05-29T13:19:36.398Z,1.70
2019-05-29T13:24:41.373Z,1.70
2019-05-29T13:29:45.833Z,2.00
2019-05-29T13:34:50.601Z,1.90
2019-05-29T13:39:55.941Z,1.90
2019-05-29T13:45:05.153Z,1.90
2019-05-29T13:50:11.732Z,1.90
2019-05-29T13:55:13.970Z,2.10
2019-05-29T14:00:33.133Z,2.10
2019-05-29T14:05:25.496Z,2.00
2019-05-29T14:10:30.562Z,1.80
2019-05-29T14:15:35.317Z,1.70
2019-05-29T14:20:39.801Z,1.67
2019-05-29T14:25:44.362Z,1.10
2019-05-29T14:30:49.155Z,1.10
2019-05-29T14:35:53.634Z,1.00
2019-05-29T14:40:58.149Z,1.00
2019-05-29T14:46:03.840Z,1.10
2019-05-29T14:51:08.566Z,0.90
2019-05-29T14:56:13.111Z,1.00
2019-05-29T15:01:17.566Z,1.00
2019-05-29T15:06:22.314Z,1.10
2019-05-29T15:11:26.791Z,0.90
2019-05-29T15:16:31.285Z,1.10
2019-05-29T15:21:36.075Z,1.13
2019-05-29T15:26:40.873Z,0.93
2019-05-29T15:31:45.313Z,0.90
2019-05-29T15:36:50.351Z,1.00
2019-05-29T15:41:54.795Z,1.00
2019-05-29T15:46:59.283Z,1.10
2019-05-29T15:52:03.982Z,0.90
2019-05-29T15:57:09.076Z,1.00
2019-05-29T16:02:13.768Z,1.00
2019-05-29T16:07:18.365Z,1.10
2019-05-29T16:12:23.441Z,1.40
2019-05-29T16:17:27.927Z,1.20
2019-05-29T16:22:32.692Z,1.20
2019-05-29T16:27:37.486Z,1.20
2019-05-29T16:32:42.000Z,1.20
2019-05-29T16:37:46.449Z,1.10
2019-05-29T16:42:50.953Z,1.20
2019-05-29T16:47:55.326Z,1.17
2019-05-29T16:52:59.810Z,1.10
2019-05-29T16:58:05.259Z,1.10
2019-05-29T17:03:09.858Z,1.10
2019-05-29T17:08:14.534Z,0.90
2019-05-29T17:13:18.999Z,1.23
2019-05-29T17:18:24.861Z,1.27
2019-05-29T17:23:29.470Z,1.37
2019-05-29T17:28:34.127Z,1.10
2019-05-29T17:33:38.582Z,1.20
2019-05-29T17:38:43.075Z,1.40
2019-05-29T17:43:47.750Z,1.20
2019-05-29T17:48:52.143Z,1.40
2019-05-29T17:53:57.004Z,1.30
2019-05-29T17:59:01.467Z,1.30
2019-05-29T18:04:06.057Z,1.30
2019-05-29T18:09:10.635Z,1.22
2019-05-29T18:14:15.083Z,1.40
2019-05-29T18:19:19.917Z,1.30
2019-05-29T18:24:26.131Z,1.30
2019-05-29T18:29:30.680Z,1.50
2019-05-29T18:34:37.237Z,1.30
2019-05-29T18:39:41.998Z,1.60
2019-05-29T18:44:46.441Z,1.20
2019-05-29T18:49:51.254Z,1.60
2019-05-29T18:54:55.961Z,1.30
2019-05-29T19:00:00.580Z,1.30
2019-05-29T19:05:06.097Z,1.57
2019-05-29T19:10:11.050Z,1.60
2019-05-29T19:15:15.961Z,1.50
2019-05-29T19:20:22.102Z,1.55
2019-05-29T19:25:26.858Z,1.63
2019-05-29T19:30:31.301Z,1.47
2019-05-29T19:35:35.947Z,1.67
2019-05-29T19:40:40.494Z,1.40
2019-05-29T19:45:45.516Z,1.63
2019-05-29T19:50:49.982Z,1.20
2019-05-29T19:55:54.466Z,1.40
2019-05-29T20:00:59.215Z,1.70
2019-05-29T20:06:03.698Z,1.37
2019-05-29T20:11:08.384Z,1.57
2019-05-29T20:16:13.151Z,1.50
2019-05-29T20:21:17.978Z,1.70
2019-05-29T20:26:23.549Z,1.55
2019-05-29T20:31:30.398Z,1.77
2019-05-29T20:36:37.289Z,1.70
2019-05-29T20:41:43.480Z,1.70
2019-05-29T20:46:47.679Z,1.83
2019-05-29T20:51:52.170Z,2.20
2019-05-29T20:56:57.043Z,1.77
2019-05-29T21:02:01.871Z,1.77
2019-05-29T21:07:06.944Z,1.73
2019-05-29T21:12:11.884Z,2.80
2019-05-29T21:17:16.325Z,2.43
2019-05-29T21:22:20.818Z,2.10
2019-05-29T21:27:25.358Z,1.90
2019-05-29T21:32:29.909Z,2.50
2019-05-29T21:37:34.358Z,2.40
2019-05-29T21:42:40.569Z,2.80
2019-05-29T21:47:45.157Z,2.33
2019-05-29T21:52:50.321Z,2.50
2019-05-29T21:57:55.008Z,1.90
2019-05-29T22:03:00.020Z,2.07
2019-05-29T22:08:05.958Z,1.90
2019-05-29T22:13:10.385Z,1.55
2019-05-29T22:18:15.222Z,2.13
2019-05-29T22:23:19.755Z,2.43
2019-05-29T22:28:24.700Z,2.27
2019-05-29T22:33:29.515Z,2.30
2019-05-29T22:38:33.973Z,2.00
2019-05-29T22:43:38.474Z,2.07
2019-05-29T22:48:44.062Z,2.33
2019-05-29T22:53:48.515Z,2.10
2019-05-29T22:58:53.966Z,1.73
2019-05-29T23:03:58.594Z,2.17
2019-05-29T23:09:03.127Z,2.30
2019-05-29T23:14:07.722Z,2.00
2019-05-29T23:19:12.418Z,1.90
2019-05-29T23:24:16.934Z,2.10
2019-05-29T23:29:21.566Z,1.72
2019-05-29T23:34:29.114Z,1.90
2019-05-29T23:39:33.557Z,2.10
2019-05-29T23:44:38.036Z,1.73
2019-05-29T23:49:42.550Z,1.73
2019-05-29T23:54:47.017Z,2.27
